createdAt,value
2018-10-16T00:00:34.200Z,9.90
2018-10-16T00:03:01.943Z,10.00
2018-10-16T00:05:29.646Z,10.77
2018-10-16T00:07:57.391Z,10.37
2018-10-16T00:10:30.832Z,9.63
2018-10-16T00:12:58.546Z,10.70
2018-10-16T00:15:26.222Z,10.20
2018-10-16T00:17:53.932Z,10.33
2018-10-16T00:20:21.625Z,11.10
2018-10-16T00:22:49.300Z,11.10
2018-10-16T00:25:17.639Z,12.40
2018-10-16T00:27:45.713Z,10.80
2018-10-16T00:30:13.543Z,10.60
2018-10-16T00:32:41.643Z,9.57
2018-10-16T00:35:09.937Z,11.67
2018-10-16T00:37:37.711Z,11.00
2018-10-16T00:40:05.444Z,10.10
2018-10-16T00:42:33.112Z,9.80
2018-10-16T00:45:00.789Z,10.80
2018-10-16T00:47:28.535Z,10.90
2018-10-16T00:49:56.168Z,10.20
2018-10-16T00:52:23.993Z,11.43
2018-10-16T00:54:51.815Z,11.30
2018-10-16T00:57:19.461Z,12.00
2018-10-16T00:59:47.128Z,10.50
2018-10-16T01:02:14.839Z,12.60
2018-10-16T01:04:42.522Z,11.93
2018-10-16T01:07:10.258Z,10.67
2018-10-16T01:09:37.995Z,9.97
2018-10-16T01:12:05.709Z,10.60
2018-10-16T01:14:33.418Z,10.30
2018-10-16T01:17:01.120Z,10.90
2018-10-16T01:19:28.956Z,9.50
2018-10-16T01:21:56.708Z,11.17
2018-10-16T01:24:24.428Z,11.07
2018-10-16T01:26:52.120Z,10.33
2018-10-16T01:29:19.869Z,11.20
2018-10-16T01:31:47.585Z,10.70
2018-10-16T01:34:15.289Z,10.40
2018-10-16T01:36:42.981Z,11.13
2018-10-16T01:39:10.669Z,10.20
2018-10-16T01:41:38.400Z,10.17
2018-10-16T01:44:06.095Z,11.20
2018-10-16T01:46:33.768Z,10.17
2018-10-16T01:49:01.465Z,10.67
2018-10-16T01:51:29.175Z,10.80
2018-10-16T01:53:56.860Z,11.10
2018-10-16T01:56:24.528Z,11.17
2018-10-16T01:58:52.229Z,10.80
2018-10-16T02:01:19.906Z,10.90
2018-10-16T02:03:47.606Z,11.13
2018-10-16T02:06:15.290Z,10.60
2018-10-16T02:08:43.000Z,10.77
2018-10-16T02:11:10.679Z,11.50
2018-10-16T02:13:38.355Z,11.13
2018-10-16T02:16:06.071Z,11.97
2018-10-16T02:18:33.749Z,11.83
2018-10-16T02:21:01.480Z,11.43
2018-10-16T02:23:29.145Z,10.97
2018-10-16T02:25:56.865Z,11.37
2018-10-16T02:28:24.524Z,10.43
2018-10-16T02:30:52.232Z,10.00
2018-10-16T02:33:19.960Z,10.97
2018-10-16T02:35:47.668Z,13.00
2018-10-16T02:38:15.382Z,12.33
2018-10-16T02:40:43.084Z,11.00
2018-10-16T02:43:10.808Z,10.17
2018-10-16T02:45:38.477Z,12.30
2018-10-16T02:48:06.244Z,10.10
2018-10-16T02:50:33.946Z,10.13
2018-10-16T02:53:01.685Z,12.40
2018-10-16T02:55:29.377Z,9.17
2018-10-16T02:57:57.091Z,11.70
2018-10-16T03:00:24.761Z,11.20
2018-10-16T03:02:52.473Z,12.07
2018-10-16T03:05:20.157Z,11.90
2018-10-16T03:07:47.885Z,10.37
2018-10-16T03:10:15.564Z,10.67
2018-10-16T03:12:43.248Z,11.03
2018-10-16T03:15:12.328Z,10.70
2018-10-16T03:17:40.131Z,10.53
2018-10-16T03:20:08.816Z,11.07
2018-10-16T03:22:36.774Z,10.97
2018-10-16T03:25:05.601Z,11.00
2018-10-16T03:27:33.280Z,10.27
2018-10-16T03:30:00.948Z,10.47
2018-10-16T03:32:28.638Z,11.33
2018-10-16T03:34:56.336Z,10.77
2018-10-16T03:37:23.995Z,12.00
2018-10-16T03:39:51.757Z,11.70
2018-10-16T03:42:19.425Z,9.67
2018-10-16T03:44:47.132Z,12.73
2018-10-16T03:47:14.836Z,13.20
2018-10-16T03:49:42.521Z,13.53
2018-10-16T03:52:10.232Z,11.30
2018-10-16T03:54:37.905Z,12.63
2018-10-16T03:57:05.709Z,10.17
2018-10-16T03:59:33.401Z,11.03
2018-10-16T04:02:01.112Z,10.30
2018-10-16T04:04:28.781Z,11.00
2018-10-16T04:06:56.481Z,11.63
2018-10-16T04:09:24.179Z,10.70
2018-10-16T04:11:51.872Z,10.40
2018-10-16T04:14:19.540Z,11.13
2018-10-16T04:16:47.273Z,12.40
2018-10-16T04:19:14.940Z,12.70
2018-10-16T04:21:43.660Z,12.77
2018-10-16T04:24:11.353Z,11.93
2018-10-16T04:26:39.053Z,11.93
2018-10-16T04:29:07.195Z,10.70
2018-10-16T04:31:34.887Z,12.13
2018-10-16T04:34:02.776Z,11.33
2018-10-16T04:36:30.449Z,11.00
2018-10-16T04:38:58.151Z,11.50
2018-10-16T04:41:25.893Z,11.57
2018-10-16T04:43:54.466Z,10.77
2018-10-16T04:46:22.112Z,11.70
2018-10-16T04:48:49.825Z,12.63
2018-10-16T04:51:17.515Z,11.83
2018-10-16T04:53:45.224Z,11.60
2018-10-16T04:56:12.948Z,10.13
2018-10-16T04:58:40.649Z,11.37
2018-10-16T05:01:08.412Z,10.00
2018-10-16T05:03:36.079Z,12.40
2018-10-16T05:06:03.817Z,10.50
2018-10-16T05:08:31.503Z,11.60
2018-10-16T05:10:59.192Z,11.23
2018-10-16T05:13:26.885Z,10.50
2018-10-16T05:15:54.605Z,11.63
2018-10-16T05:18:22.283Z,12.23
2018-10-16T05:20:49.955Z,12.23
2018-10-16T05:23:17.657Z,10.57
2018-10-16T05:25:45.392Z,10.60
2018-10-16T05:28:13.051Z,10.63
2018-10-16T05:30:40.756Z,10.50
2018-10-16T05:33:08.435Z,12.23
2018-10-16T05:35:36.149Z,12.27
2018-10-16T05:38:04.035Z,10.77
2018-10-16T05:40:31.712Z,11.57
2018-10-16T05:42:59.412Z,12.83
2018-10-16T05:45:28.524Z,11.63
2018-10-16T05:47:56.222Z,10.97
2018-10-16T05:50:23.913Z,11.30
2018-10-16T05:52:51.612Z,11.40
2018-10-16T05:55:19.356Z,13.90
2018-10-16T05:57:47.048Z,11.83
2018-10-16T06:00:26.010Z,12.30
2018-10-16T06:02:53.724Z,11.13
2018-10-16T06:05:21.391Z,11.17
2018-10-16T06:07:49.129Z,11.87
2018-10-16T06:10:16.812Z,12.93
2018-10-16T06:12:44.520Z,11.60
2018-10-16T06:15:12.189Z,11.10
2018-10-16T06:17:39.896Z,11.10
2018-10-16T06:20:10.185Z,11.37
2018-10-16T06:22:37.884Z,12.07
2018-10-16T06:25:06.440Z,12.10
2018-10-16T06:27:34.132Z,12.53
2018-10-16T06:30:01.928Z,11.70
2018-10-16T06:32:29.517Z,12.60
2018-10-16T06:34:57.284Z,12.00
2018-10-16T06:37:24.972Z,12.40
2018-10-16T06:39:52.664Z,12.00
2018-10-16T06:42:20.378Z,11.63
2018-10-16T06:44:48.073Z,11.43
2018-10-16T06:47:15.765Z,12.50
2018-10-16T06:49:43.469Z,12.40
2018-10-16T06:52:11.153Z,12.60
2018-10-16T06:54:38.869Z,12.90
2018-10-16T06:57:06.623Z,10.80
2018-10-16T06:59:34.285Z,12.93
2018-10-16T07:02:01.965Z,12.70
2018-10-16T07:04:29.625Z,11.87
2018-10-16T07:06:57.432Z,12.13
2018-10-16T07:09:25.060Z,12.90
2018-10-16T07:11:52.744Z,13.17
2018-10-16T07:14:20.427Z,12.80
2018-10-16T07:16:48.209Z,11.90
2018-10-16T07:19:15.941Z,10.23
2018-10-16T07:21:43.831Z,11.50
2018-10-16T07:24:11.452Z,11.97
2018-10-16T07:26:39.143Z,13.40
2018-10-16T07:29:07.700Z,12.83
2018-10-16T07:31:35.439Z,11.73
2018-10-16T07:34:03.268Z,12.17
2018-10-16T07:36:30.920Z,12.27
2018-10-16T07:38:58.676Z,12.73
2018-10-16T07:41:26.317Z,10.13
2018-10-16T07:43:54.029Z,13.87
2018-10-16T07:46:21.716Z,11.60
2018-10-16T07:48:49.408Z,10.07
2018-10-16T07:51:17.076Z,11.77
2018-10-16T07:53:44.801Z,9.80
2018-10-16T07:56:12.532Z,11.63
2018-10-16T07:58:40.250Z,11.47
2018-10-16T08:01:07.955Z,10.37
2018-10-16T08:03:35.684Z,9.50
2018-10-16T08:06:03.496Z,11.40
2018-10-16T08:08:31.191Z,9.83
2018-10-16T08:10:58.901Z,10.73
2018-10-16T08:13:26.585Z,9.70
2018-10-16T08:15:54.285Z,10.20
2018-10-16T08:18:21.996Z,11.13
2018-10-16T08:20:49.700Z,11.23
2018-10-16T08:23:17.407Z,10.70
2018-10-16T08:25:45.132Z,11.07
2018-10-16T08:28:12.814Z,10.60
2018-10-16T08:30:40.574Z,10.37
2018-10-16T08:33:08.256Z,10.20
2018-10-16T08:35:35.981Z,9.70
2018-10-16T08:39:11.351Z,9.60
2018-10-16T08:41:55.473Z,10.20
2018-10-16T08:45:34.992Z,11.20
2018-10-16T08:48:14.083Z,9.43
2018-10-16T08:50:53.157Z,8.90
2018-10-16T08:53:20.845Z,9.60
2018-10-16T08:55:48.558Z,9.63
2018-10-16T08:58:16.252Z,9.40
2018-10-16T09:00:43.921Z,11.10
2018-10-16T09:03:11.625Z,10.23
2018-10-16T09:05:39.296Z,10.90
2018-10-16T09:08:06.993Z,9.30
2018-10-16T09:10:34.689Z,10.30
2018-10-16T09:13:02.385Z,9.27
2018-10-16T09:15:30.088Z,9.43
2018-10-16T09:17:57.760Z,9.73
2018-10-16T09:20:25.464Z,9.83
2018-10-16T09:22:53.172Z,9.50
2018-10-16T09:25:20.828Z,10.60
2018-10-16T09:27:48.505Z,8.93
2018-10-16T09:30:16.261Z,10.40
2018-10-16T09:32:44.008Z,9.93
2018-10-16T09:35:12.499Z,11.20
2018-10-16T09:37:40.331Z,10.10
2018-10-16T09:40:10.265Z,10.17
2018-10-16T09:42:37.981Z,10.17
2018-10-16T09:45:06.195Z,9.43
2018-10-16T09:47:33.921Z,10.00
2018-10-16T09:50:01.641Z,9.00
2018-10-16T09:52:30.175Z,10.47
2018-10-16T09:54:57.925Z,9.60
2018-10-16T09:57:25.605Z,9.20
2018-10-16T09:59:53.296Z,9.70
2018-10-16T10:02:21.064Z,9.80
2018-10-16T10:04:48.765Z,9.70
2018-10-16T10:07:16.503Z,10.43
2018-10-16T10:09:44.168Z,8.70
2018-10-16T10:12:11.848Z,9.80
2018-10-16T10:14:39.542Z,9.80
2018-10-16T10:17:07.261Z,9.70
2018-10-16T10:19:34.927Z,9.60
2018-10-16T10:22:02.591Z,9.93
2018-10-16T10:24:30.296Z,10.60
2018-10-16T10:26:57.976Z,10.83
2018-10-16T10:29:25.691Z,9.63
2018-10-16T10:31:53.373Z,9.80
2018-10-16T10:34:21.147Z,10.10
2018-10-16T10:39:39.586Z,9.60
2018-10-16T10:42:07.357Z,9.30
2018-10-16T10:44:35.039Z,9.67
2018-10-16T10:47:02.752Z,9.20
2018-10-16T10:49:30.463Z,9.33
2018-10-16T10:51:58.222Z,8.40
2018-10-16T10:54:25.943Z,9.37
2018-10-16T10:56:53.790Z,8.30
2018-10-16T10:59:21.430Z,9.30
2018-10-16T11:01:49.164Z,9.30
2018-10-16T11:04:16.890Z,8.70
2018-10-16T11:06:44.610Z,8.13
2018-10-16T11:09:12.976Z,7.30
2018-10-16T11:11:44.253Z,7.80
2018-10-16T11:14:11.975Z,7.30
2018-10-16T11:16:39.697Z,8.57
2018-10-16T11:19:07.470Z,7.10
2018-10-16T11:21:35.213Z,8.23
2018-10-16T11:24:02.971Z,7.30
2018-10-16T11:26:30.699Z,7.43
2018-10-16T11:28:58.434Z,5.87
2018-10-16T11:31:26.156Z,7.30
2018-10-16T11:33:53.930Z,6.67
2018-10-16T11:36:21.624Z,6.77
2018-10-16T11:38:49.371Z,6.27
2018-10-16T11:41:17.112Z,6.33
2018-10-16T11:43:44.852Z,6.90
2018-10-16T11:46:12.546Z,6.40
2018-10-16T11:48:40.273Z,6.63
2018-10-16T11:51:08.056Z,7.43
2018-10-16T11:53:35.755Z,6.67
2018-10-16T11:56:03.483Z,6.20
2018-10-16T11:58:31.244Z,7.60
2018-10-16T12:00:59.063Z,7.33
2018-10-16T12:03:26.790Z,7.23
2018-10-16T12:05:54.535Z,6.63
2018-10-16T12:08:22.275Z,5.80
2018-10-16T12:10:50.095Z,6.23
2018-10-16T12:13:17.755Z,6.40
2018-10-16T12:15:45.503Z,6.40
2018-10-16T12:18:15.963Z,6.57
2018-10-16T12:20:49.620Z,6.13
2018-10-16T12:23:17.310Z,6.67
2018-10-16T12:25:45.134Z,5.70
2018-10-16T12:28:12.853Z,6.07
2018-10-16T12:30:40.600Z,6.80
2018-10-16T12:33:08.749Z,6.00
2018-10-16T12:35:36.420Z,6.17
2018-10-16T12:38:04.236Z,6.27
2018-10-16T12:40:31.944Z,6.43
2018-10-16T12:42:59.738Z,32.20
2018-10-16T12:45:27.387Z,8.90
2018-10-16T12:47:55.153Z,6.37
2018-10-16T12:50:22.877Z,5.97
2018-10-16T12:52:50.658Z,5.30
2018-10-16T12:55:18.285Z,6.97
2018-10-16T12:57:46.001Z,6.27
2018-10-16T13:00:13.760Z,6.70
2018-10-16T13:02:41.467Z,5.90
2018-10-16T13:05:09.271Z,6.27
2018-10-16T13:07:37.964Z,5.87
2018-10-16T13:10:15.748Z,5.20
2018-10-16T13:12:44.304Z,5.83
2018-10-16T13:15:12.930Z,5.90
2018-10-16T13:17:40.829Z,6.50
2018-10-16T13:20:10.296Z,5.77
2018-10-16T13:22:38.504Z,5.90
2018-10-16T13:25:07.620Z,6.30
2018-10-16T13:27:35.497Z,5.10
2018-10-16T13:30:03.379Z,5.20
2018-10-16T13:32:31.044Z,4.83
2018-10-16T13:34:58.865Z,4.80
2018-10-16T13:37:26.584Z,4.10
2018-10-16T13:39:54.321Z,5.20
2018-10-16T13:42:22.118Z,5.40
2018-10-16T13:44:49.765Z,5.33
2018-10-16T13:47:17.465Z,5.10
2018-10-16T13:49:45.193Z,5.30
2018-10-16T13:52:12.994Z,4.93
2018-10-16T13:54:40.626Z,4.13
2018-10-16T13:57:08.330Z,4.67
2018-10-16T13:59:36.065Z,5.00
2018-10-16T14:02:04.463Z,5.67
2018-10-16T14:04:32.161Z,5.10
2018-10-16T14:06:59.857Z,4.90
2018-10-16T14:09:27.639Z,5.13
2018-10-16T14:11:55.350Z,6.20
2018-10-16T14:14:23.045Z,4.97
2018-10-16T14:16:50.801Z,5.17
2018-10-16T14:19:18.492Z,5.00
2018-10-16T14:21:46.313Z,5.93
2018-10-16T14:24:14.057Z,5.30
2018-10-16T14:26:41.825Z,5.97
2018-10-16T14:29:09.550Z,5.47
2018-10-16T14:31:37.261Z,5.37
2018-10-16T14:34:05.389Z,5.70
2018-10-16T14:36:33.065Z,6.00
2018-10-16T14:39:00.758Z,6.07
2018-10-16T14:41:28.509Z,6.37
2018-10-16T14:43:56.259Z,7.50
2018-10-16T14:46:24.030Z,13.60
2018-10-16T14:48:51.757Z,6.60
2018-10-16T14:51:19.484Z,6.10
2018-10-16T14:53:47.216Z,7.97
2018-10-16T14:56:14.999Z,11.60
2018-10-16T14:58:42.654Z,11.70
2018-10-16T15:01:10.410Z,9.23
2018-10-16T15:03:38.117Z,11.20
2018-10-16T15:06:05.846Z,7.50
2018-10-16T15:08:33.560Z,8.57
2018-10-16T15:11:01.289Z,9.10
2018-10-16T15:13:29.037Z,7.50
2018-10-16T15:15:56.783Z,8.43
2018-10-16T15:18:24.545Z,8.10
2018-10-16T15:20:52.277Z,7.33
2018-10-16T15:23:20.045Z,5.67
2018-10-16T15:25:47.754Z,8.10
2018-10-16T15:28:15.533Z,7.60
2018-10-16T15:30:43.243Z,10.07
2018-10-16T15:33:10.996Z,8.40
2018-10-16T15:35:38.733Z,8.73
2018-10-16T15:38:06.519Z,9.13
2018-10-16T15:40:34.245Z,7.83
2018-10-16T15:43:02.590Z,9.40
2018-10-16T15:45:30.348Z,9.23
2018-10-16T15:47:58.191Z,8.87
2018-10-16T15:50:25.932Z,8.77
2018-10-16T15:52:53.638Z,12.63
2018-10-16T15:55:21.429Z,11.13
2018-10-16T15:57:49.179Z,13.47
2018-10-16T16:00:17.377Z,11.53
2018-10-16T16:02:45.075Z,11.23
2018-10-16T16:05:12.836Z,10.27
2018-10-16T16:07:40.660Z,10.27
2018-10-16T16:10:11.407Z,12.87
2018-10-16T16:12:39.186Z,11.30
2018-10-16T16:15:08.138Z,9.90
2018-10-16T16:17:36.245Z,9.80
2018-10-16T16:20:05.024Z,10.10
2018-10-16T16:22:32.758Z,11.13
2018-10-16T16:25:00.473Z,9.23
2018-10-16T16:27:28.198Z,9.83
2018-10-16T16:29:55.984Z,11.00
2018-10-16T16:32:23.719Z,11.93
2018-10-16T16:34:51.462Z,10.83
2018-10-16T16:37:19.149Z,10.60
2018-10-16T16:39:46.904Z,10.20
2018-10-16T16:42:14.603Z,9.00
2018-10-16T16:44:42.309Z,9.80
2018-10-16T16:47:10.138Z,9.30
2018-10-16T16:49:37.809Z,8.90
2018-10-16T16:52:05.607Z,16.30
2018-10-16T16:54:33.263Z,18.20
2018-10-16T16:57:00.997Z,13.37
2018-10-16T16:59:28.701Z,9.90
2018-10-16T17:01:56.467Z,13.37
2018-10-16T17:04:24.184Z,9.30
2018-10-16T17:06:51.885Z,10.27
2018-10-16T17:09:19.614Z,8.87
2018-10-16T17:11:47.333Z,8.37
2018-10-16T17:14:15.089Z,10.00
2018-10-16T17:16:42.770Z,10.67
2018-10-16T17:19:10.490Z,11.67
2018-10-16T17:21:38.196Z,10.37
2018-10-16T17:24:05.929Z,11.07
2018-10-16T17:26:33.644Z,11.27
2018-10-16T17:29:01.694Z,9.10
2018-10-16T17:31:29.486Z,8.93
2018-10-16T17:33:57.284Z,10.37
2018-10-16T17:36:24.945Z,10.53
2018-10-16T17:38:52.689Z,11.27
2018-10-16T17:41:20.373Z,15.30
2018-10-16T17:43:48.100Z,14.20
2018-10-16T17:46:15.872Z,13.47
2018-10-16T17:48:43.596Z,12.00
2018-10-16T17:51:11.400Z,11.97
2018-10-16T17:53:39.058Z,12.57
2018-10-16T17:56:07.073Z,10.73
2018-10-16T17:58:34.801Z,11.50
2018-10-16T18:01:02.523Z,10.20
2018-10-16T18:03:30.367Z,9.77
2018-10-16T18:05:58.122Z,10.83
2018-10-16T18:08:25.830Z,9.47
2018-10-16T18:10:53.563Z,10.10
2018-10-16T18:13:21.288Z,9.10
2018-10-16T18:15:49.009Z,11.30
2018-10-16T18:18:16.777Z,10.10
2018-10-16T18:20:44.445Z,11.87
2018-10-16T18:23:12.170Z,10.57
2018-10-16T18:25:39.942Z,13.77
2018-10-16T18:28:07.653Z,10.67
2018-10-16T18:30:35.343Z,9.43
2018-10-16T18:33:03.105Z,11.03
2018-10-16T18:35:30.810Z,11.33
2018-10-16T18:37:58.629Z,9.63
2018-10-16T18:40:26.324Z,12.03
2018-10-16T18:42:54.057Z,10.03
2018-10-16T18:45:21.797Z,12.20
2018-10-16T18:47:49.480Z,10.97
2018-10-16T18:50:17.205Z,11.27
2018-10-16T18:52:45.128Z,10.80
2018-10-16T18:55:13.749Z,15.60
2018-10-16T18:57:41.468Z,16.93
2018-10-16T19:00:11.626Z,11.97
2018-10-16T19:02:39.572Z,11.00
2018-10-16T19:05:08.177Z,11.10
2018-10-16T19:07:35.953Z,11.77
2018-10-16T19:10:03.959Z,13.43
2018-10-16T19:12:31.665Z,12.10
2018-10-16T19:14:59.416Z,12.93
2018-10-16T19:17:27.125Z,12.73
2018-10-16T19:19:54.854Z,11.77
2018-10-16T19:22:22.562Z,11.60
2018-10-16T19:24:50.345Z,11.83
2018-10-16T19:27:18.156Z,11.20
2018-10-16T19:29:45.882Z,11.10
2018-10-16T19:32:13.592Z,11.93
2018-10-16T19:34:41.317Z,12.13
2018-10-16T19:37:09.069Z,10.20
2018-10-16T19:39:36.790Z,9.60
2018-10-16T19:42:04.845Z,10.60
2018-10-16T19:44:32.606Z,10.40
2018-10-16T19:47:00.300Z,10.10
2018-10-16T19:49:27.988Z,10.60
2018-10-16T19:51:55.713Z,10.37
2018-10-16T19:54:23.409Z,10.83
2018-10-16T19:56:51.159Z,11.40
2018-10-16T19:59:18.870Z,12.50
2018-10-16T20:01:46.621Z,11.10
2018-10-16T20:04:14.341Z,10.40
2018-10-16T20:06:42.066Z,10.13
2018-10-16T20:09:11.018Z,10.30
2018-10-16T20:11:38.751Z,10.10
2018-10-16T20:14:06.496Z,10.43
2018-10-16T20:16:34.188Z,9.40
2018-10-16T20:19:01.891Z,10.70
2018-10-16T20:21:29.625Z,10.80
2018-10-16T20:23:57.309Z,18.13
2018-10-16T20:26:25.024Z,9.93
2018-10-16T20:28:52.710Z,9.93
2018-10-16T20:31:20.432Z,11.20
2018-10-16T20:33:55.143Z,10.10
2018-10-16T20:36:22.871Z,11.40
2018-10-16T20:38:50.583Z,10.40
2018-10-16T20:41:18.295Z,10.57
2018-10-16T20:43:45.990Z,9.60
2018-10-16T20:46:13.721Z,9.70
2018-10-16T20:48:41.422Z,9.53
2018-10-16T20:51:09.117Z,10.40
2018-10-16T20:53:36.857Z,8.93
2018-10-16T20:56:04.745Z,10.20
2018-10-16T20:58:32.494Z,9.30
2018-10-16T21:01:00.674Z,9.33
2018-10-16T21:03:28.349Z,10.07
2018-10-16T21:05:57.081Z,9.23
2018-10-16T21:08:24.694Z,10.27
2018-10-16T21:10:52.384Z,11.40
2018-10-16T21:13:20.109Z,11.17
2018-10-16T21:15:47.802Z,10.13
2018-10-16T21:18:15.517Z,9.77
2018-10-16T21:20:43.217Z,10.93
2018-10-16T21:23:10.948Z,9.93
2018-10-16T21:25:38.641Z,10.53
2018-10-16T21:28:06.428Z,10.60
2018-10-16T21:30:34.133Z,10.33
2018-10-16T21:33:01.881Z,10.00
2018-10-16T21:35:29.584Z,10.10
2018-10-16T21:37:57.302Z,10.10
2018-10-16T21:40:24.987Z,10.40
2018-10-16T21:42:52.682Z,9.60
2018-10-16T21:45:20.367Z,9.70
2018-10-16T21:47:48.076Z,9.83
2018-10-16T21:50:15.752Z,9.90
2018-10-16T21:52:43.475Z,9.30
2018-10-16T21:55:11.186Z,10.30
2018-10-16T21:57:38.871Z,9.67
2018-10-16T22:00:12.113Z,9.60
2018-10-16T22:02:45.340Z,10.83
2018-10-16T22:05:13.199Z,11.10
2018-10-16T22:07:40.942Z,11.30
2018-10-16T22:10:08.652Z,10.30
2018-10-16T22:12:36.388Z,11.03
2018-10-16T22:15:04.393Z,9.70
2018-10-16T22:17:32.097Z,11.00
2018-10-16T22:19:59.780Z,11.50
2018-10-16T22:22:27.496Z,11.20
2018-10-16T22:24:55.201Z,11.00
2018-10-16T22:27:22.897Z,9.10
2018-10-16T22:29:50.612Z,11.33
2018-10-16T22:32:18.285Z,9.63
2018-10-16T22:34:46.000Z,10.13
2018-10-16T22:37:13.711Z,9.70
2018-10-16T22:39:41.432Z,10.73
2018-10-16T22:42:09.138Z,10.40
2018-10-16T22:44:36.909Z,10.97
2018-10-16T22:47:04.605Z,9.87
2018-10-16T22:49:32.332Z,11.13
2018-10-16T22:52:00.017Z,10.33
2018-10-16T22:54:27.745Z,11.13
2018-10-16T22:56:55.440Z,11.37
2018-10-16T22:59:23.157Z,10.10
2018-10-16T23:01:50.869Z,10.20
2018-10-16T23:04:18.605Z,11.27
2018-10-16T23:06:46.315Z,10.30
2018-10-16T23:09:14.028Z,10.83
2018-10-16T23:11:41.720Z,10.07
2018-10-16T23:14:09.444Z,10.60
2018-10-16T23:16:37.146Z,9.50
2018-10-16T23:19:05.187Z,9.70
2018-10-16T23:21:32.895Z,10.77
2018-10-16T23:24:00.648Z,10.50
2018-10-16T23:26:28.332Z,10.70
2018-10-16T23:28:56.097Z,8.77
2018-10-16T23:31:23.784Z,10.40
2018-10-16T23:33:51.512Z,9.90
2018-10-16T23:36:19.208Z,11.63
2018-10-16T23:38:46.932Z,9.37
2018-10-16T23:41:14.650Z,10.03
2018-10-16T23:43:42.343Z,10.60
2018-10-16T23:46:10.041Z,9.80
2018-10-16T23:48:37.749Z,9.30
2018-10-16T23:51:06.157Z,9.13
2018-10-16T23:53:33.896Z,9.30
2018-10-16T23:56:01.582Z,10.13
2018-10-16T23:58:29.281Z,10.20
